createdAt,value
2022-12-29T00:00:06.658Z,13.70
2022-12-29T00:02:39.877Z,13.70
2022-12-29T00:05:08.031Z,13.70
2022-12-29T00:07:35.195Z,13.70
2022-12-29T00:10:02.116Z,13.70
2022-12-29T00:12:49.020Z,13.80
2022-12-29T00:15:34.527Z,13.80
2022-12-29T00:18:01.525Z,13.80
2022-12-29T00:20:46.797Z,13.80
2022-12-29T00:23:32.128Z,13.80
2022-12-29T00:26:17.937Z,13.80
2022-12-29T00:29:03.339Z,13.80
2022-12-29T00:31:48.742Z,13.80
2022-12-29T00:34:34.638Z,13.90
2022-12-29T00:37:01.708Z,13.90
2022-12-29T00:39:47.328Z,13.90
2022-12-29T00:42:32.747Z,13.90
2022-12-29T00:44:59.589Z,13.90
2022-12-29T00:47:26.428Z,13.90
2022-12-29T00:49:53.323Z,13.90
2022-12-29T00:52:20.294Z,13.90
2022-12-29T00:54:47.176Z,13.90
2022-12-29T00:57:14.273Z,13.90
2022-12-29T00:59:42.997Z,13.90
2022-12-29T01:02:11.529Z,14.00
2022-12-29T01:04:38.617Z,14.00
2022-12-29T01:07:06.053Z,14.00
2022-12-29T01:09:52.298Z,14.00
2022-12-29T01:12:41.952Z,14.00
2022-12-29T01:15:15.058Z,14.00
2022-12-29T01:17:42.479Z,14.00
2022-12-29T01:20:09.960Z,14.00
2022-12-29T01:22:36.902Z,14.00
2022-12-29T01:25:04.760Z,13.90
2022-12-29T01:27:31.912Z,13.90
2022-12-29T01:29:59.539Z,13.90
2022-12-29T01:32:26.547Z,13.90
2022-12-29T01:34:53.500Z,13.90
2022-12-29T01:37:20.363Z,13.80
2022-12-29T01:39:47.378Z,13.80
2022-12-29T01:42:19.452Z,13.80
2022-12-29T01:44:56.269Z,13.80
2022-12-29T01:47:36.504Z,13.70
2022-12-29T01:50:26.931Z,13.70
2022-12-29T01:52:58.951Z,13.60
2022-12-29T01:55:29.003Z,13.60
2022-12-29T01:57:59.387Z,13.60
2022-12-29T02:00:26.327Z,13.50
2022-12-29T02:02:54.550Z,13.50
2022-12-29T02:05:48.234Z,13.50
2022-12-29T02:08:15.353Z,13.50
2022-12-29T02:10:43.775Z,13.50
2022-12-29T02:13:10.667Z,13.50
2022-12-29T02:15:59.039Z,13.50
2022-12-29T02:18:32.125Z,13.50
2022-12-29T02:21:02.518Z,13.50
2022-12-29T02:23:38.340Z,13.50
2022-12-29T02:26:20.228Z,13.50
2022-12-29T02:29:12.122Z,13.50
2022-12-29T02:31:45.663Z,13.50
2022-12-29T02:34:37.609Z,13.50
2022-12-29T02:37:33.076Z,13.50
2022-12-29T02:40:22.169Z,13.40
2022-12-29T02:42:56.708Z,13.40
2022-12-29T02:45:31.774Z,13.40
2022-12-29T02:48:15.813Z,13.40
2022-12-29T02:51:18.206Z,13.40
2022-12-29T02:54:05.433Z,13.30
2022-12-29T02:56:32.794Z,13.30
2022-12-29T02:58:59.733Z,13.30
2022-12-29T03:02:19.782Z,13.30
2022-12-29T03:05:08.463Z,13.40
2022-12-29T03:07:49.715Z,13.40
2022-12-29T03:10:25.735Z,13.40
2022-12-29T03:13:20.715Z,13.50
2022-12-29T03:16:04.955Z,13.50
2022-12-29T03:18:38.734Z,13.50
2022-12-29T03:21:50.952Z,13.40
2022-12-29T03:24:23.222Z,13.40
2022-12-29T03:26:54.115Z,13.40
2022-12-29T03:29:22.142Z,13.40
2022-12-29T03:31:50.859Z,13.40
2022-12-29T03:34:21.110Z,13.40
2022-12-29T03:36:55.739Z,13.40
2022-12-29T03:39:26.192Z,13.30
2022-12-29T03:41:59.875Z,13.40
2022-12-29T03:44:42.158Z,13.40
2022-12-29T03:47:12.722Z,13.30
2022-12-29T03:49:40.166Z,13.30
2022-12-29T03:52:08.729Z,13.30
2022-12-29T03:54:41.494Z,13.30
2022-12-29T03:57:10.322Z,13.30
2022-12-29T03:59:56.613Z,13.30
2022-12-29T04:02:24.954Z,13.30
2022-12-29T04:04:53.103Z,13.30
2022-12-29T04:07:19.965Z,13.30
2022-12-29T04:09:47.637Z,13.30
2022-12-29T04:12:20.381Z,13.30
2022-12-29T04:14:47.542Z,13.30
2022-12-29T04:17:14.441Z,13.30
2022-12-29T04:19:42.948Z,13.30
2022-12-29T04:22:10.200Z,13.30
2022-12-29T04:24:37.382Z,13.30
2022-12-29T04:27:04.400Z,13.30
2022-12-29T04:29:54.513Z,13.30
2022-12-29T04:32:33.517Z,13.30
2022-12-29T04:35:00.842Z,13.30
2022-12-29T04:37:28.259Z,13.20
2022-12-29T04:39:55.704Z,13.20
2022-12-29T04:42:22.683Z,13.20
2022-12-29T04:44:50.746Z,13.20
2022-12-29T04:47:37.955Z,13.20
2022-12-29T04:50:28.083Z,13.10
2022-12-29T04:53:16.961Z,13.10
2022-12-29T04:55:45.081Z,13.10
2022-12-29T04:58:16.275Z,13.10
2022-12-29T05:00:47.096Z,13.10
2022-12-29T05:03:14.672Z,13.10
2022-12-29T05:05:43.426Z,13.10
2022-12-29T05:08:10.399Z,13.10
2022-12-29T05:10:37.606Z,13.10
2022-12-29T05:13:10.711Z,13.10
2022-12-29T05:15:37.710Z,13.10
2022-12-29T05:18:04.736Z,13.00
2022-12-29T05:20:31.680Z,13.00
2022-12-29T05:22:58.639Z,13.00
2022-12-29T05:25:25.718Z,13.00
2022-12-29T05:27:59.610Z,13.00
2022-12-29T05:30:40.927Z,13.00
2022-12-29T05:33:07.856Z,13.00
2022-12-29T05:35:35.453Z,13.00
2022-12-29T05:38:02.518Z,13.00
2022-12-29T05:40:29.418Z,13.00
2022-12-29T05:43:00.220Z,13.00
2022-12-29T05:45:37.690Z,12.90
2022-12-29T05:48:31.710Z,12.90
2022-12-29T05:51:18.134Z,12.90
2022-12-29T05:53:49.579Z,12.90
2022-12-29T05:56:16.808Z,12.90
2022-12-29T05:58:46.043Z,12.90
2022-12-29T06:01:12.938Z,12.90
2022-12-29T06:03:46.111Z,12.90
2022-12-29T06:06:15.273Z,12.90
2022-12-29T06:08:42.906Z,12.90
2022-12-29T06:11:10.190Z,12.90
2022-12-29T06:13:37.462Z,12.90
2022-12-29T06:16:04.687Z,12.90
2022-12-29T06:18:31.871Z,12.80
2022-12-29T06:21:03.341Z,12.80
2022-12-29T06:23:30.431Z,12.80
2022-12-29T06:25:58.369Z,12.80
2022-12-29T06:28:25.504Z,12.80
2022-12-29T06:30:53.209Z,12.80
2022-12-29T06:33:20.269Z,12.80
2022-12-29T06:35:47.230Z,12.80
2022-12-29T06:38:15.298Z,12.80
2022-12-29T06:40:44.040Z,12.80
2022-12-29T06:43:39.224Z,12.80
2022-12-29T06:46:20.067Z,12.80
2022-12-29T06:48:47.167Z,12.80
2022-12-29T06:51:14.077Z,12.70
2022-12-29T06:53:41.319Z,12.70
2022-12-29T06:56:08.278Z,12.70
2022-12-29T06:58:35.371Z,12.70
2022-12-29T07:01:02.351Z,12.60
2022-12-29T07:03:29.391Z,12.60
2022-12-29T07:05:56.359Z,12.60
2022-12-29T07:08:23.216Z,12.50
2022-12-29T07:10:50.083Z,12.60
2022-12-29T07:13:16.919Z,12.50
2022-12-29T07:15:44.171Z,12.50
2022-12-29T07:18:11.002Z,12.40
2022-12-29T07:20:37.996Z,12.20
2022-12-29T07:23:04.847Z,12.00
2022-12-29T07:25:31.691Z,11.90
2022-12-29T07:27:58.606Z,11.80
2022-12-29T07:30:25.505Z,11.80
2022-12-29T07:32:52.375Z,11.70
2022-12-29T07:35:19.244Z,11.70
2022-12-29T07:37:46.122Z,11.60
2022-12-29T07:40:13.739Z,11.60
2022-12-29T07:42:41.087Z,11.60
2022-12-29T07:45:10.639Z,11.60
2022-12-29T07:47:50.327Z,11.60
2022-12-29T07:50:17.429Z,11.60
2022-12-29T07:52:44.562Z,11.60
2022-12-29T07:55:11.546Z,11.60
2022-12-29T07:57:38.464Z,11.60
2022-12-29T08:00:05.799Z,11.60
2022-12-29T08:02:38.964Z,11.70
2022-12-29T08:05:06.467Z,11.70
2022-12-29T08:07:33.392Z,11.70
2022-12-29T08:10:00.325Z,11.70
2022-12-29T08:12:27.208Z,11.80
2022-12-29T08:14:54.116Z,11.80
2022-12-29T08:17:22.096Z,11.90
2022-12-29T08:19:48.993Z,11.90
2022-12-29T08:22:15.947Z,11.90
2022-12-29T08:24:42.850Z,12.00
2022-12-29T08:27:17.970Z,12.00
2022-12-29T08:29:47.522Z,12.00
2022-12-29T08:32:14.440Z,12.10
2022-12-29T08:34:41.387Z,12.10
2022-12-29T08:37:08.459Z,12.10
2022-12-29T08:39:35.595Z,12.20
2022-12-29T08:42:02.617Z,12.20
2022-12-29T08:44:29.505Z,12.30
2022-12-29T08:46:56.496Z,12.30
2022-12-29T08:49:23.484Z,12.30
2022-12-29T08:51:50.906Z,12.30
2022-12-29T08:54:17.751Z,12.30
2022-12-29T08:56:46.083Z,12.40
2022-12-29T08:59:14.537Z,12.40
2022-12-29T09:01:42.649Z,12.40
2022-12-29T09:04:15.697Z,12.40
2022-12-29T09:06:45.019Z,12.40
2022-12-29T09:09:12.385Z,12.40
2022-12-29T09:11:39.756Z,12.40
2022-12-29T09:14:06.716Z,12.40
2022-12-29T09:16:34.033Z,12.40
2022-12-29T09:19:01.538Z,12.40
2022-12-29T09:21:28.483Z,12.40
2022-12-29T09:23:55.394Z,12.40
2022-12-29T09:26:22.311Z,12.40
2022-12-29T09:28:49.279Z,12.40
2022-12-29T09:31:16.233Z,12.40
2022-12-29T09:33:43.169Z,12.40
2022-12-29T09:36:10.312Z,12.40
2022-12-29T09:38:37.230Z,12.40
2022-12-29T09:41:26.658Z,12.40
2022-12-29T09:44:13.810Z,12.40
2022-12-29T09:46:45.234Z,12.40
2022-12-29T09:49:44.253Z,12.40
2022-12-29T09:52:22.642Z,12.40
2022-12-29T09:55:02.390Z,12.30
2022-12-29T09:58:27.938Z,12.30
2022-12-29T10:01:13.416Z,12.20
2022-12-29T10:03:47.899Z,12.20
2022-12-29T10:06:29.858Z,12.10
2022-12-29T10:09:11.916Z,12.10
2022-12-29T10:11:41.598Z,12.10
2022-12-29T10:14:18.132Z,12.00
2022-12-29T10:16:51.266Z,12.00
2022-12-29T10:19:36.451Z,12.00
2022-12-29T10:22:14.196Z,12.10
2022-12-29T10:24:42.021Z,12.00
2022-12-29T10:27:14.359Z,12.10
2022-12-29T10:29:52.816Z,12.00
2022-12-29T10:32:28.954Z,12.10
2022-12-29T10:35:02.447Z,12.10
2022-12-29T10:37:41.680Z,12.10
2022-12-29T10:40:25.537Z,12.00
2022-12-29T10:42:55.737Z,12.00
2022-12-29T10:45:26.663Z,12.00
2022-12-29T10:48:09.991Z,12.00
2022-12-29T10:50:43.732Z,12.00
2022-12-29T10:53:21.642Z,12.00
2022-12-29T10:55:49.158Z,12.00
2022-12-29T10:58:16.409Z,12.00
2022-12-29T11:00:44.851Z,12.00
2022-12-29T11:03:39.829Z,12.00
2022-12-29T11:06:26.902Z,12.00
2022-12-29T11:09:20.130Z,12.00
2022-12-29T11:11:47.013Z,12.00
2022-12-29T11:14:19.442Z,12.00
2022-12-29T11:16:57.102Z,12.00
2022-12-29T11:19:29.071Z,12.00
2022-12-29T11:21:56.308Z,12.00
2022-12-29T11:24:28.970Z,11.90
2022-12-29T11:27:26.365Z,11.90
2022-12-29T11:29:54.909Z,11.90
2022-12-29T11:32:28.551Z,11.90
2022-12-29T11:34:59.922Z,12.00
2022-12-29T11:37:39.520Z,12.00
2022-12-29T11:40:17.049Z,12.00
2022-12-29T11:42:54.785Z,12.00
2022-12-29T11:45:27.826Z,12.00
2022-12-29T11:48:09.866Z,12.00
2022-12-29T11:50:40.469Z,12.00
2022-12-29T11:53:18.671Z,12.00
2022-12-29T11:56:08.628Z,12.00
2022-12-29T11:58:38.756Z,12.00
2022-12-29T12:01:12.127Z,12.00
2022-12-29T12:03:46.813Z,12.00
2022-12-29T12:06:20.039Z,12.00
2022-12-29T12:08:55.630Z,12.10
2022-12-29T12:11:37.870Z,12.00
2022-12-29T12:14:08.666Z,12.00
2022-12-29T12:17:00.379Z,12.00
2022-12-29T12:19:35.783Z,12.00
2022-12-29T12:22:16.862Z,12.00
2022-12-29T12:24:54.463Z,12.00
2022-12-29T12:27:30.253Z,12.10
2022-12-29T12:30:10.475Z,12.20
2022-12-29T12:33:00.253Z,12.30
2022-12-29T12:35:57.467Z,12.30
2022-12-29T12:38:30.580Z,12.40
2022-12-29T12:41:09.902Z,12.50
2022-12-29T12:44:06.276Z,12.50
2022-12-29T12:47:09.949Z,12.50
2022-12-29T12:49:48.719Z,12.50
2022-12-29T12:52:21.791Z,12.60
2022-12-29T12:55:29.449Z,12.60
2022-12-29T12:58:22.562Z,12.60
2022-12-29T13:01:08.453Z,12.70
2022-12-29T13:03:56.718Z,12.70
2022-12-29T13:06:48.700Z,12.70
2022-12-29T13:09:31.099Z,12.70
2022-12-29T13:12:07.204Z,12.70
2022-12-29T13:14:57.661Z,12.70
2022-12-29T13:18:01.315Z,12.60
2022-12-29T13:20:46.839Z,12.60
2022-12-29T13:23:46.473Z,12.60
2022-12-29T13:26:33.714Z,12.70
2022-12-29T13:29:44.338Z,12.60
2022-12-29T13:32:35.558Z,12.60
2022-12-29T13:35:17.782Z,12.60
2022-12-29T13:37:55.140Z,12.60
2022-12-29T13:40:29.623Z,12.60
2022-12-29T13:42:58.517Z,12.60
2022-12-29T13:45:29.410Z,12.50
2022-12-29T13:48:00.986Z,12.60
2022-12-29T13:50:30.782Z,12.50
2022-12-29T13:53:00.657Z,12.50
2022-12-29T13:55:55.701Z,12.50
2022-12-29T13:58:30.850Z,12.40
2022-12-29T14:01:12.819Z,12.40
2022-12-29T14:03:51.484Z,12.40
2022-12-29T14:06:24.264Z,12.40
2022-12-29T14:09:03.484Z,12.50
2022-12-29T14:11:41.941Z,12.50
2022-12-29T14:14:19.872Z,12.40
2022-12-29T14:16:47.023Z,12.50
2022-12-29T14:19:18.513Z,12.50
2022-12-29T14:21:57.760Z,12.40
2022-12-29T14:24:36.879Z,12.40
2022-12-29T14:27:15.593Z,12.30
2022-12-29T14:29:42.491Z,12.20
2022-12-29T14:32:27.715Z,12.20
2022-12-29T14:34:55.840Z,12.10
2022-12-29T14:37:31.905Z,12.10
2022-12-29T14:40:29.596Z,12.00
2022-12-29T14:42:58.439Z,11.90
2022-12-29T14:45:33.812Z,11.90
2022-12-29T14:48:01.166Z,11.80
2022-12-29T14:50:43.972Z,11.80
2022-12-29T14:53:47.940Z,11.80
2022-12-29T14:56:17.960Z,11.80
2022-12-29T14:58:54.704Z,11.70
2022-12-29T15:01:44.317Z,11.70
2022-12-29T15:04:16.817Z,11.60
2022-12-29T15:06:45.961Z,11.70
2022-12-29T15:09:38.251Z,11.70
2022-12-29T15:12:22.483Z,11.70
2022-12-29T15:14:57.744Z,11.60
2022-12-29T15:17:31.827Z,11.60
2022-12-29T15:20:01.084Z,11.60
2022-12-29T15:22:28.885Z,11.60
2022-12-29T15:24:57.617Z,11.60
2022-12-29T15:27:26.571Z,11.70
2022-12-29T15:29:59.331Z,11.70
2022-12-29T15:32:28.230Z,11.70
2022-12-29T15:34:57.792Z,11.70
2022-12-29T15:37:33.523Z,11.70
2022-12-29T15:40:00.460Z,11.70
2022-12-29T15:42:46.029Z,11.80
2022-12-29T15:45:14.935Z,11.80
2022-12-29T15:47:44.995Z,11.80
2022-12-29T15:50:33.402Z,11.80
2022-12-29T15:53:01.294Z,11.80
2022-12-29T15:55:40.920Z,11.80
2022-12-29T15:58:27.523Z,11.80
2022-12-29T16:01:01.135Z,11.80
2022-12-29T16:03:34.866Z,11.80
2022-12-29T16:06:32.533Z,11.80
2022-12-29T16:09:01.000Z,11.80
2022-12-29T16:11:41.439Z,11.90
2022-12-29T16:14:15.769Z,11.90
2022-12-29T16:16:44.900Z,11.80
2022-12-29T16:19:37.106Z,11.90
2022-12-29T16:22:12.744Z,11.80
2022-12-29T16:24:41.052Z,11.80
2022-12-29T16:27:16.793Z,11.80
2022-12-29T16:29:44.214Z,11.80
2022-12-29T16:32:29.124Z,11.80
2022-12-29T16:35:19.194Z,11.80
2022-12-29T16:37:47.109Z,11.80
2022-12-29T16:40:34.375Z,11.80
2022-12-29T16:43:03.217Z,11.80
2022-12-29T16:45:48.661Z,11.70
2022-12-29T16:48:15.604Z,11.70
2022-12-29T16:50:44.790Z,11.60
2022-12-29T16:53:21.363Z,11.60
2022-12-29T16:55:52.698Z,11.60
2022-12-29T16:58:26.400Z,11.50
2022-12-29T17:00:57.900Z,11.50
2022-12-29T17:03:33.666Z,11.50
2022-12-29T17:06:00.651Z,11.50
2022-12-29T17:08:27.733Z,11.50
2022-12-29T17:11:16.267Z,11.50
2022-12-29T17:13:43.159Z,11.40
2022-12-29T17:16:11.639Z,11.40
2022-12-29T17:18:39.106Z,11.40
2022-12-29T17:21:06.099Z,11.30
2022-12-29T17:23:34.379Z,11.30
2022-12-29T17:26:02.269Z,11.30
2022-12-29T17:28:32.029Z,11.30
2022-12-29T17:31:03.217Z,11.30
2022-12-29T17:33:37.702Z,11.30
2022-12-29T17:36:04.780Z,11.30
2022-12-29T17:38:35.861Z,11.30
2022-12-29T17:41:02.916Z,11.20
2022-12-29T17:43:36.323Z,11.20
2022-12-29T17:46:07.283Z,11.20
2022-12-29T17:48:34.365Z,11.20
2022-12-29T17:51:01.535Z,11.20
2022-12-29T17:53:29.990Z,11.20
2022-12-29T17:55:57.165Z,11.10
2022-12-29T17:58:26.220Z,11.10
2022-12-29T18:00:58.313Z,11.10
2022-12-29T18:03:30.411Z,11.10
2022-12-29T18:05:58.034Z,11.10
2022-12-29T18:08:25.067Z,11.10
2022-12-29T18:10:53.983Z,11.10
2022-12-29T18:13:21.004Z,11.00
2022-12-29T18:15:48.099Z,11.00
2022-12-29T18:18:18.147Z,11.00
2022-12-29T18:20:46.486Z,11.00
2022-12-29T18:23:37.135Z,10.90
2022-12-29T18:26:23.882Z,10.90
2022-12-29T18:28:53.818Z,10.90
2022-12-29T18:31:30.275Z,10.80
2022-12-29T18:33:59.459Z,10.80
2022-12-29T18:36:27.554Z,10.80
2022-12-29T18:38:54.920Z,10.80
2022-12-29T18:41:29.526Z,10.70
2022-12-29T18:43:57.854Z,10.70
2022-12-29T18:46:24.955Z,10.60
2022-12-29T18:48:52.477Z,10.70
2022-12-29T18:51:24.665Z,10.60
2022-12-29T18:53:53.982Z,10.60
2022-12-29T18:56:22.655Z,10.70
2022-12-29T18:58:50.619Z,10.60
2022-12-29T19:01:21.029Z,10.60
2022-12-29T19:03:48.319Z,10.60
2022-12-29T19:06:15.234Z,10.60
2022-12-29T19:08:42.226Z,10.60
2022-12-29T19:11:09.338Z,10.60
2022-12-29T19:13:36.292Z,10.60
2022-12-29T19:16:03.340Z,10.60
2022-12-29T19:18:43.606Z,10.50
2022-12-29T19:21:12.166Z,10.50
2022-12-29T19:23:39.961Z,10.50
2022-12-29T19:26:07.013Z,10.50
2022-12-29T19:28:33.928Z,10.50
2022-12-29T19:31:02.678Z,10.50
2022-12-29T19:33:29.849Z,10.50
2022-12-29T19:36:01.847Z,10.50
2022-12-29T19:38:29.328Z,10.50
2022-12-29T19:40:56.546Z,10.60
2022-12-29T19:43:23.431Z,10.60
2022-12-29T19:45:51.359Z,10.50
2022-12-29T19:48:20.629Z,10.60
2022-12-29T19:50:47.715Z,10.60
2022-12-29T19:53:15.457Z,10.60
2022-12-29T19:55:47.073Z,10.60
2022-12-29T19:58:14.696Z,10.60
2022-12-29T20:00:43.208Z,10.60
2022-12-29T20:03:10.786Z,10.50
2022-12-29T20:05:38.939Z,10.50
2022-12-29T20:08:05.790Z,10.60
2022-12-29T20:10:32.665Z,10.60
2022-12-29T20:12:59.525Z,10.60
2022-12-29T20:15:26.424Z,10.60
2022-12-29T20:20:40.151Z,10.50
2022-12-29T20:23:07.044Z,10.60
2022-12-29T20:25:44.602Z,10.60
2022-12-29T20:28:12.149Z,10.50
2022-12-29T20:30:39.020Z,10.50
2022-12-29T20:33:08.393Z,10.50
2022-12-29T20:35:36.412Z,10.50
2022-12-29T20:38:04.170Z,10.50
2022-12-29T20:40:32.253Z,10.50
2022-12-29T20:42:59.412Z,10.50
2022-12-29T20:45:26.546Z,10.50
2022-12-29T20:47:53.642Z,10.50
2022-12-29T20:50:20.617Z,10.50
2022-12-29T20:52:47.576Z,10.50
2022-12-29T20:55:14.891Z,10.50
2022-12-29T20:58:21.925Z,10.50
2022-12-29T21:00:32.891Z,10.50
2022-12-29T21:03:01.053Z,10.50
2022-12-29T21:05:28.785Z,10.50
2022-12-29T21:07:56.679Z,10.50
2022-12-29T21:10:23.536Z,10.40
2022-12-29T21:12:50.919Z,10.40
2022-12-29T21:15:17.962Z,10.40
2022-12-29T21:17:45.355Z,10.40
2022-12-29T21:20:19.797Z,10.40
2022-12-29T21:22:48.286Z,10.40
2022-12-29T21:25:15.317Z,10.50
2022-12-29T21:27:44.177Z,10.50
2022-12-29T21:30:11.862Z,10.50
2022-12-29T21:32:39.266Z,10.50
2022-12-29T21:35:07.094Z,10.50
2022-12-29T21:37:34.521Z,10.50
2022-12-29T21:40:01.731Z,10.50
2022-12-29T21:42:28.692Z,10.40
2022-12-29T21:45:19.838Z,10.40
2022-12-29T21:48:06.568Z,10.40
2022-12-29T21:50:33.520Z,10.40
2022-12-29T21:53:00.401Z,10.40
2022-12-29T21:55:27.246Z,10.30
2022-12-29T21:58:12.701Z,10.30
2022-12-29T22:00:58.148Z,10.30
2022-12-29T22:03:43.534Z,10.30
2022-12-29T22:06:29.928Z,10.30
2022-12-29T22:09:15.375Z,10.30
2022-12-29T22:12:00.770Z,10.20
2022-12-29T22:14:28.782Z,10.20
2022-12-29T22:16:55.688Z,10.20
2022-12-29T22:19:22.626Z,10.20
2022-12-29T22:21:49.413Z,10.20
2022-12-29T22:24:16.281Z,10.20
2022-12-29T22:26:43.175Z,10.20
2022-12-29T22:29:09.997Z,10.20
2022-12-29T22:31:37.184Z,10.10
2022-12-29T22:34:05.005Z,10.10
2022-12-29T22:36:32.678Z,10.10
2022-12-29T22:38:59.811Z,10.10
2022-12-29T22:41:26.841Z,10.10
2022-12-29T22:43:54.714Z,10.10
2022-12-29T22:46:21.946Z,10.10
2022-12-29T22:48:48.861Z,10.10
2022-12-29T22:51:15.687Z,10.10
2022-12-29T22:53:42.545Z,10.10
2022-12-29T22:56:13.772Z,10.10
2022-12-29T22:58:41.825Z,10.10
2022-12-29T23:01:10.015Z,10.00
2022-12-29T23:03:37.306Z,10.10
2022-12-29T23:06:06.377Z,10.10
2022-12-29T23:08:35.780Z,10.00
2022-12-29T23:11:03.474Z,10.00
2022-12-29T23:13:30.623Z,10.00
2022-12-29T23:15:57.600Z,10.00
2022-12-29T23:18:24.617Z,9.90
2022-12-29T23:20:51.777Z,9.90
2022-12-29T23:23:44.876Z,9.90
2022-12-29T23:26:16.676Z,9.90
2022-12-29T23:28:43.725Z,9.90
2022-12-29T23:31:10.867Z,9.90
2022-12-29T23:33:37.754Z,9.90
2022-12-29T23:36:05.332Z,9.90
2022-12-29T23:38:32.198Z,10.00
2022-12-29T23:40:59.104Z,9.90
2022-12-29T23:43:26.331Z,10.00
2022-12-29T23:45:53.290Z,10.00
2022-12-29T23:48:20.254Z,10.00
2022-12-29T23:50:47.132Z,10.00
2022-12-29T23:53:14.382Z,10.00
2022-12-29T23:55:43.188Z,10.00
2022-12-29T23:58:11.062Z,10.00
